Accueil
METAR-TAF:

METAR-TAF

Aéroports :

Rouen, France

Aéroport Rouen Vallée de Seine

latitude: 49-23N, longitude: 001-11E, altitude: 157 m

Observation

Le bulletin a été fait il y a 27 minutes, à 21:00 UTC
Vent 3 kt de nord/nord-ouest
Température 4°C
Humidité 75%
Pression 1018 hPa
Visibilité 10 km ou plus
pas de nuages en-dessous de 1500 mètres et pas de cumulonimbus.

METAR: LFOP 262100Z AUTO 34003KT CAVOK 04/00 Q1018

Heure: 23:27 (21:27 UTC)

Prévision

Le bulletin a été fait il y a 4 heures et 27 minutes, à 17:00 UTC
Prévision valable du 26 à 18 UTC au 27 à 18 UTC
Vent 8 kt de nord
Visibilité 10 km ou plus
Nuages fragmentés à une hauteur de 4000 ft
Temporairement
du 27 à 08 UTC au 27 à 12 UTC
Visibilité: 4000 m
Nuages fragmentés à une hauteur de 3000 ft, Cumulus congestus.
averses de pluie

TAF: LFOP 261700Z 2618/2718 35008KT 9999 BKN040 TEMPO 2708/2712 4000 SHRA BKN030TCU

Observations et prévisions météorologiques de plus de 4000 aéroports (messages METAR et TAF).

Les stations disponibles sont représentées par des disques jaunes et rouges sur la carte.

Passer la souris dessus pour voir le nom de la station.

Cliquer dessus pour voir les observations et prévisions météorologiques.

Pour changer de carte: cliquez sur les boutons verts avec une croix noire pour zoomer, sur le bouton vert avec un tiret pour effectuer un zoom arrière, ou sur les flèches vertes pour les cartes adjacentes.


METAR-TAF: